Snow/Ice From: 16-12-2017 16:00 Until: 17-12-2017 16:00 warning for: Snow/Ice Level: Yellow info button

Although rather usual in this region, locally or potentially dangerous phenomena are expected. (such as local winds, summer thunderstorms, rising streams or high waves) Be aware and pay attention to the latest weather updates, especially if you carry out activities exposed to weather or close to a stream or shoreline. 


Meteo18 Weather Cam more information Meteo18 Weather Cam


Thunder radar more information blitzortung!


warning for Snow/Ice more information rain snow radar


Visit our other weather sites:

Template documentation
and downloads

And another site



Weather Underground History page Text

Daily Summary for May 24, 2017 Units:  Metric    English   Both
« Previous Day
Next Day »
Daily Weekly Monthly Yearly Custom
  High: Low: Average:
Temperature: 23.4 °C 13.0 °C 18.8 °C
Dew Point: 17.0 °C 11.4 °C 14.3 °C
Humidity: 91 % 61 % 76 %
Wind Speed: 19.3 km/h 0.0 km/h 5.5 km/h
Wind Gust: 24.1 km/h - -
Wind:- - SE
Pressure: 1026.3 hPa 1023.2 hPa -
Precipitation: 0.0 mm    
Historical Graphs
 
 
Tabular Data for May 24, 2017
Time Temperature Dew Point Pressure Wind Wind Speed Wind Gust Humidity Rainfall Rate (Hourly)
00:02 16.4 °C 12.9 °C 1024.9 hPa NW 3.2 km/h 6.4 km/h 80 % 0.0 mm
00:12 16.4 °C 12.9 °C 1024.9 hPa Calm   4.8 km/h 80 % 0.0 mm
00:17 16.3 °C 13.0 °C 1024.9 hPa WNW 1.6 km/h 6.4 km/h 81 % 0.0 mm
00:22 16.3 °C 13.0 °C 1024.9 hPa NW 1.6 km/h 6.4 km/h 81 % 0.0 mm
00:27 16.3 °C 13.0 °C 1024.9 hPa WNW 1.6 km/h 6.4 km/h 81 % 0.0 mm
00:32 16.2 °C 12.9 °C 1024.9 hPa Calm   4.8 km/h 81 % 0.0 mm
00:37 16.1 °C 13.0 °C 1024.9 hPa Calm   4.8 km/h 82 % 0.0 mm
00:42 15.9 °C 12.8 °C 1024.9 hPa Calm   3.2 km/h 82 % 0.0 mm
00:52 15.6 °C 12.9 °C 1024.9 hPa NNW 3.2 km/h 3.2 km/h 84 % 0.0 mm
00:57 15.7 °C 13.2 °C 1024.9 hPa NW 1.6 km/h 3.2 km/h 85 % 0.0 mm
01:02 15.8 °C 13.1 °C 1024.9 hPa WNW 3.2 km/h 3.2 km/h 84 % 0.0 mm
01:12 15.9 °C 13.0 °C 1024.9 hPa Calm   3.2 km/h 83 % 0.0 mm
01:17 15.9 °C 12.8 °C 1024.9 hPa NW 1.6 km/h 3.2 km/h 82 % 0.0 mm
01:22 15.8 °C 12.7 °C 1024.9 hPa NW 4.8 km/h 4.8 km/h 82 % 0.0 mm
01:32 15.9 °C 12.6 °C 1024.9 hPa NNW 1.6 km/h 6.4 km/h 81 % 0.0 mm
01:42 15.9 °C 12.6 °C 1024.9 hPa NW 1.6 km/h 6.4 km/h 81 % 0.0 mm
01:47 16.0 °C 12.6 °C 1024.9 hPa NW 1.6 km/h 3.2 km/h 80 % 0.0 mm
01:52 16.0 °C 12.6 °C 1024.9 hPa NW 1.6 km/h 3.2 km/h 80 % 0.0 mm
01:57 15.9 °C 12.6 °C 1024.9 hPa NNW 1.6 km/h 3.2 km/h 81 % 0.0 mm
02:02 15.9 °C 12.6 °C 1024.9 hPa Calm   3.2 km/h 81 % 0.0 mm
02:07 15.8 °C 12.5 °C 1024.9 hPa NW 1.6 km/h 4.8 km/h 81 % 0.0 mm
02:12 15.8 °C 12.5 °C 1024.9 hPa WNW 1.6 km/h 4.8 km/h 81 % 0.0 mm
02:17 15.7 °C 12.6 °C 1024.9 hPa Calm   3.2 km/h 82 % 0.0 mm
02:22 15.6 °C 12.5 °C 1024.9 hPa NW 3.2 km/h 3.2 km/h 82 % 0.0 mm
02:32 15.5 °C 12.6 °C 1024.9 hPa NNW 1.6 km/h 4.8 km/h 83 % 0.0 mm
02:42 15.2 °C 12.3 °C 1024.9 hPa NW 1.6 km/h 4.8 km/h 83 % 0.0 mm
02:47 15.2 °C 12.5 °C 1024.9 hPa NNW 1.6 km/h 3.2 km/h 84 % 0.0 mm
02:52 15.2 °C 12.5 °C 1024.9 hPa Calm   3.2 km/h 84 % 0.0 mm
02:57 15.1 °C 12.4 °C 1024.9 hPa Calm   3.2 km/h 84 % 0.0 mm
03:02 15.1 °C 12.4 °C 1024.9 hPa Calm   3.2 km/h 84 % 0.0 mm
03:12 14.9 °C 12.4 °C 1024.9 hPa Calm   1.6 km/h 85 % 0.0 mm
03:22 14.9 °C 12.4 °C 1025.3 hPa Calm   1.6 km/h 85 % 0.0 mm
03:32 14.7 °C 12.2 °C 1024.9 hPa Calm   3.2 km/h 85 % 0.0 mm
03:37 14.6 °C 12.1 °C 1024.9 hPa Calm   3.2 km/h 85 % 0.0 mm
03:42 14.4 °C 12.1 °C 1024.9 hPa NNW 1.6 km/h 3.2 km/h 86 % 0.0 mm
03:47 14.4 °C 12.1 °C 1024.9 hPa Calm   3.2 km/h 86 % 0.0 mm
03:52 14.4 °C 12.1 °C 1025.3 hPa Calm   3.2 km/h 86 % 0.0 mm
03:57 14.4 °C 12.1 °C 1025.3 hPa Calm   3.2 km/h 86 % 0.0 mm
04:02 14.3 °C 12.0 °C 1025.3 hPa North 3.2 km/h 3.2 km/h 86 % 0.0 mm
04:12 14.0 °C 11.7 °C 1025.3 hPa NNE 4.8 km/h 4.8 km/h 86 % 0.0 mm
04:17 13.8 °C 11.7 °C 1025.3 hPa NNE 1.6 km/h 6.4 km/h 87 % 0.0 mm
04:22 13.7 °C 11.6 °C 1025.3 hPa NNE 3.2 km/h 6.4 km/h 87 % 0.0 mm
04:32 13.9 °C 11.9 °C 1025.3 hPa NNE 1.6 km/h 8.0 km/h 88 % 0.0 mm
04:37 14.0 °C 11.9 °C 1025.3 hPa North 3.2 km/h 8.0 km/h 87 % 0.0 mm
04:42 14.0 °C 11.9 °C 1025.3 hPa NNW 1.6 km/h 8.0 km/h 87 % 0.0 mm
04:47 13.9 °C 11.8 °C 1025.3 hPa North 4.8 km/h 8.0 km/h 87 % 0.0 mm
04:52 13.8 °C 11.7 °C 1025.3 hPa NE 3.2 km/h 8.0 km/h 87 % 0.0 mm
05:02 13.6 °C 11.6 °C 1025.3 hPa NNE 3.2 km/h 8.0 km/h 88 % 0.0 mm
05:07 13.5 °C 11.6 °C 1025.6 hPa North 1.6 km/h 8.0 km/h 88 % 0.0 mm
05:12 13.4 °C 11.6 °C 1025.6 hPa NNE 4.8 km/h 8.0 km/h 89 % 0.0 mm
05:17 13.4 °C 11.6 °C 1025.6 hPa NNE 6.4 km/h 8.0 km/h 89 % 0.0 mm
05:22 13.4 °C 11.6 °C 1025.6 hPa NE 3.2 km/h 8.0 km/h 89 % 0.0 mm
05:27 13.3 °C 11.5 °C 1025.6 hPa NNE 4.8 km/h 8.0 km/h 89 % 0.0 mm
05:32 13.3 °C 11.7 °C 1025.6 hPa North 1.6 km/h 8.0 km/h 90 % 0.0 mm
05:37 13.4 °C 11.8 °C 1025.6 hPa NNW 4.8 km/h 6.4 km/h 90 % 0.0 mm
05:42 13.4 °C 11.6 °C 1025.6 hPa Calm   6.4 km/h 89 % 0.0 mm
05:47 13.4 °C 11.6 °C 1025.6 hPa Calm   6.4 km/h 89 % 0.0 mm
05:52 13.3 °C 11.5 °C 1025.6 hPa NNW 1.6 km/h 6.4 km/h 89 % 0.0 mm
05:57 13.2 °C 11.6 °C 1025.6 hPa Calm   8.0 km/h 90 % 0.0 mm
06:02 13.3 °C 11.7 °C 1025.6 hPa North 3.2 km/h 8.0 km/h 90 % 0.0 mm
06:07 13.5 °C 11.9 °C 1025.6 hPa NNW 4.8 km/h 11.3 km/h 90 % 0.0 mm
06:12 13.5 °C 11.7 °C 1025.6 hPa NW 4.8 km/h 11.3 km/h 89 % 0.0 mm
06:17 13.4 °C 11.6 °C 1026.0 hPa North 1.6 km/h 11.3 km/h 89 % 0.0 mm
06:22 13.3 °C 11.5 °C 1026.0 hPa NNW 1.6 km/h 11.3 km/h 89 % 0.0 mm
06:32 13.0 °C 11.4 °C 1026.0 hPa North 1.6 km/h 6.4 km/h 90 % 0.0 mm
06:37 13.0 °C 11.4 °C 1026.0 hPa Calm   6.4 km/h 90 % 0.0 mm
06:42 13.2 °C 11.8 °C 1026.0 hPa Calm   3.2 km/h 91 % 0.0 mm
06:52 13.4 °C 11.8 °C 1026.0 hPa Calm   3.2 km/h 90 % 0.0 mm
06:57 13.4 °C 11.8 °C 1026.0 hPa North 1.6 km/h 3.2 km/h 90 % 0.0 mm
07:02 13.4 °C 11.8 °C 1026.0 hPa Calm   3.2 km/h 90 % 0.0 mm
07:07 13.5 °C 11.9 °C 1026.0 hPa Calm   3.2 km/h 90 % 0.0 mm
07:12 13.7 °C 12.1 °C 1026.0 hPa NW 1.6 km/h 3.2 km/h 90 % 0.0 mm
07:22 14.1 °C 12.3 °C 1026.0 hPa NNW 3.2 km/h 4.8 km/h 89 % 0.0 mm
07:27 14.4 °C 12.4 °C 1026.0 hPa Calm   4.8 km/h 88 % 0.0 mm
07:32 14.7 °C 12.7 °C 1026.0 hPa North 1.6 km/h 4.8 km/h 88 % 0.0 mm
07:37 14.8 °C 12.7 °C 1026.0 hPa WNW 3.2 km/h 4.8 km/h 87 % 0.0 mm
07:42 14.9 °C 12.8 °C 1026.0 hPa Calm   4.8 km/h 87 % 0.0 mm
07:52 15.3 °C 13.0 °C 1026.0 hPa Calm   4.8 km/h 86 % 0.0 mm
08:02 15.8 °C 13.3 °C 1026.0 hPa Calm   3.2 km/h 85 % 0.0 mm
08:07 16.1 °C 13.4 °C 1026.3 hPa NNE 1.6 km/h 3.2 km/h 84 % 0.0 mm
08:12 16.3 °C 13.6 °C 1026.3 hPa North 3.2 km/h 4.8 km/h 84 % 0.0 mm
08:17 16.4 °C 13.5 °C 1026.3 hPa NNE 4.8 km/h 4.8 km/h 83 % 0.0 mm
08:22 16.6 °C 13.7 °C 1026.3 hPa NNE 3.2 km/h 6.4 km/h 83 % 0.0 mm
08:32 16.9 °C 13.6 °C 1026.3 hPa ENE 1.6 km/h 6.4 km/h 81 % 0.0 mm
08:42 17.3 °C 13.6 °C 1026.3 hPa NNE 6.4 km/h 8.0 km/h 79 % 0.0 mm
08:47 17.4 °C 14.1 °C 1026.3 hPa NE 1.6 km/h 8.0 km/h 81 % 0.0 mm
08:52 17.6 °C 13.9 °C 1026.3 hPa North 6.4 km/h 11.3 km/h 79 % 0.0 mm
08:57 17.7 °C 13.8 °C 1026.3 hPa NE 6.4 km/h 11.3 km/h 78 % 0.0 mm
09:02 17.7 °C 13.6 °C 1026.3 hPa NE 6.4 km/h 11.3 km/h 77 % 0.0 mm
09:12 17.9 °C 13.6 °C 1026.3 hPa NNE 8.0 km/h 9.7 km/h 76 % 0.0 mm
09:17 17.9 °C 14.0 °C 1026.3 hPa NE 6.4 km/h 9.7 km/h 78 % 0.0 mm
09:22 18.0 °C 13.9 °C 1026.3 hPa North 3.2 km/h 14.5 km/h 77 % 0.0 mm
09:27 18.0 °C 13.7 °C 1026.3 hPa NE 6.4 km/h 14.5 km/h 76 % 0.0 mm
09:32 18.1 °C 13.6 °C 1026.0 hPa ENE 6.4 km/h 14.5 km/h 75 % 0.0 mm
09:37 18.2 °C 13.7 °C 1026.3 hPa NE 3.2 km/h 14.5 km/h 75 % 0.0 mm
09:42 18.3 °C 13.6 °C 1026.0 hPa NE 12.9 km/h 16.1 km/h 74 % 0.0 mm
09:47 18.2 °C 13.1 °C 1026.0 hPa NE 6.4 km/h 16.1 km/h 72 % 0.0 mm
09:52 18.4 °C 13.7 °C 1026.0 hPa NE 6.4 km/h 16.1 km/h 74 % 0.0 mm
09:57 18.6 °C 13.7 °C 1026.0 hPa North 8.0 km/h 16.1 km/h 73 % 0.0 mm
10:02 18.7 °C 13.8 °C 1026.0 hPa NE 9.7 km/h 16.1 km/h 73 % 0.0 mm
10:12 18.9 °C 14.0 °C 1026.0 hPa NE 8.0 km/h 14.5 km/h 73 % 0.0 mm
10:17 19.1 °C 14.4 °C 1026.0 hPa Calm   14.5 km/h 74 % 0.0 mm
10:22 19.4 °C 14.6 °C 1026.0 hPa NE 3.2 km/h 14.5 km/h 74 % 0.0 mm
10:32 19.5 °C 14.3 °C 1026.0 hPa NW 1.6 km/h 11.3 km/h 72 % 0.0 mm
10:37 19.6 °C 14.2 °C 1026.0 hPa East 1.6 km/h 11.3 km/h 71 % 0.0 mm
10:42 19.9 °C 14.9 °C 1026.0 hPa East 4.8 km/h 12.9 km/h 73 % 0.0 mm
10:47 20.0 °C 14.8 °C 1026.0 hPa NE 4.8 km/h 12.9 km/h 72 % 0.0 mm
10:52 20.0 °C 14.8 °C 1026.0 hPa NNE 9.7 km/h 9.7 km/h 72 % 0.0 mm
10:57 20.1 °C 14.2 °C 1026.0 hPa NE 1.6 km/h 9.7 km/h 69 % 0.0 mm
11:02 20.2 °C 14.6 °C 1026.0 hPa ENE 3.2 km/h 11.3 km/h 70 % 0.0 mm
11:12 20.4 °C 14.5 °C 1026.0 hPa ENE 6.4 km/h 11.3 km/h 69 % 0.0 mm
11:17 20.7 °C 14.8 °C 1026.0 hPa East 3.2 km/h 11.3 km/h 69 % 0.0 mm
11:22 20.9 °C 15.2 °C 1026.0 hPa ENE 8.0 km/h 11.3 km/h 70 % 0.0 mm
11:27 20.9 °C 14.8 °C 1026.0 hPa East 3.2 km/h 11.3 km/h 68 % 0.0 mm
11:32 21.0 °C 15.3 °C 1026.0 hPa North 4.8 km/h 9.7 km/h 70 % 0.0 mm
11:37 20.9 °C 15.2 °C 1026.0 hPa NNE 1.6 km/h 9.7 km/h 70 % 0.0 mm
11:42 21.1 °C 15.2 °C 1026.0 hPa NNW 1.6 km/h 11.3 km/h 69 % 0.0 mm
11:47 21.3 °C 15.4 °C 1026.0 hPa North 6.4 km/h 11.3 km/h 69 % 0.0 mm
11:52 21.0 °C 14.6 °C 1026.0 hPa NE 11.3 km/h 11.3 km/h 67 % 0.0 mm
11:57 21.0 °C 15.1 °C 1026.0 hPa NE 9.7 km/h 11.3 km/h 69 % 0.0 mm
12:02 21.1 °C 14.7 °C 1026.0 hPa ENE 6.4 km/h 16.1 km/h 67 % 0.0 mm
12:07 21.0 °C 14.9 °C 1026.0 hPa NE 4.8 km/h 16.1 km/h 68 % 0.0 mm
12:12 21.4 °C 15.2 °C 1026.0 hPa NE 6.4 km/h 17.7 km/h 68 % 0.0 mm
12:17 21.2 °C 15.5 °C 1026.0 hPa NNE 9.7 km/h 17.7 km/h 70 % 0.0 mm
12:22 21.1 °C 15.0 °C 1026.0 hPa NE 6.4 km/h 16.1 km/h 68 % 0.0 mm
12:32 21.6 °C 15.9 °C 1025.6 hPa NE 9.7 km/h 14.5 km/h 70 % 0.0 mm
12:42 21.7 °C 15.3 °C 1025.6 hPa NW 14.5 km/h 17.7 km/h 67 % 0.0 mm
12:52 21.7 °C 15.5 °C 1025.6 hPa NNE 3.2 km/h 19.3 km/h 68 % 0.0 mm
13:02 21.8 °C 15.6 °C 1025.6 hPa North 8.0 km/h 19.3 km/h 68 % 0.0 mm
13:12 21.6 °C 15.4 °C 1025.6 hPa NE 8.0 km/h 22.5 km/h 68 % 0.0 mm
13:17 21.6 °C 15.2 °C 1025.6 hPa NNE 17.7 km/h 22.5 km/h 67 % 0.0 mm
13:22 21.8 °C 15.6 °C 1025.3 hPa NNW 8.0 km/h 22.5 km/h 68 % 0.0 mm
13:32 22.1 °C 15.7 °C 1025.3 hPa North 4.8 km/h 20.9 km/h 67 % 0.0 mm
13:37 22.2 °C 16.2 °C 1025.3 hPa NE 9.7 km/h 16.1 km/h 69 % 0.0 mm
13:42 22.1 °C 15.7 °C 1025.3 hPa North 8.0 km/h 16.1 km/h 67 % 0.0 mm
13:47 22.1 °C 15.2 °C 1025.3 hPa NNW 6.4 km/h 19.3 km/h 65 % 0.0 mm
13:52 21.8 °C 15.2 °C 1025.3 hPa NNE 11.3 km/h 19.3 km/h 66 % 0.0 mm
13:57 21.8 °C 15.6 °C 1025.3 hPa NE 4.8 km/h 19.3 km/h 68 % 0.0 mm
14:02 22.2 °C 15.5 °C 1025.3 hPa NNE 11.3 km/h 19.3 km/h 66 % 0.0 mm
14:07 22.5 °C 15.8 °C 1025.3 hPa NNE 8.0 km/h 17.7 km/h 66 % 0.0 mm
14:12 22.9 °C 15.2 °C 1024.9 hPa North 6.4 km/h 17.7 km/h 62 % 0.0 mm
14:17 22.6 °C 15.7 °C 1024.9 hPa NNE 14.5 km/h 20.9 km/h 65 % 0.0 mm
14:22 22.6 °C 15.9 °C 1024.9 hPa NE 11.3 km/h 20.9 km/h 66 % 0.0 mm
14:32 22.4 °C 14.8 °C 1024.9 hPa NE 4.8 km/h 20.9 km/h 62 % 0.0 mm
14:37 22.8 °C 15.4 °C 1024.9 hPa East 12.9 km/h 22.5 km/h 63 % 0.0 mm
14:42 22.9 °C 15.5 °C 1024.9 hPa NNE 19.3 km/h 22.5 km/h 63 % 0.0 mm
14:47 22.9 °C 16.0 °C 1024.9 hPa NNW 6.4 km/h 20.9 km/h 65 % 0.0 mm
14:52 23.1 °C 16.2 °C 1024.9 hPa NW 1.6 km/h 20.9 km/h 65 % 0.0 mm
14:57 23.3 °C 16.1 °C 1024.9 hPa NE 4.8 km/h 20.9 km/h 64 % 0.0 mm
15:02 23.2 °C 15.3 °C 1024.6 hPa NNW 4.8 km/h 20.9 km/h 61 % 0.0 mm
15:07 23.0 °C 16.1 °C 1024.9 hPa NNE 9.7 km/h 22.5 km/h 65 % 0.0 mm
15:12 22.9 °C 15.7 °C 1024.6 hPa NNE 3.2 km/h 22.5 km/h 64 % 0.0 mm
15:17 22.8 °C 15.1 °C 1024.6 hPa ENE 4.8 km/h 22.5 km/h 62 % 0.0 mm
15:22 22.8 °C 15.9 °C 1024.6 hPa NE 4.8 km/h 22.5 km/h 65 % 0.0 mm
15:27 23.2 °C 15.8 °C 1024.6 hPa NW 1.6 km/h 19.3 km/h 63 % 0.0 mm
15:32 23.4 °C 15.7 °C 1024.6 hPa NE 17.7 km/h 19.3 km/h 62 % 0.0 mm
15:42 23.1 °C 15.2 °C 1024.6 hPa NE 4.8 km/h 22.5 km/h 61 % 0.0 mm
15:47 23.0 °C 15.8 °C 1024.6 hPa NE 11.3 km/h 22.5 km/h 64 % 0.0 mm
15:52 22.9 °C 15.5 °C 1024.6 hPa North 11.3 km/h 22.5 km/h 63 % 0.0 mm
15:57 22.8 °C 15.1 °C 1024.6 hPa ENE 11.3 km/h 24.1 km/h 62 % 0.0 mm
16:02 23.1 °C 15.7 °C 1024.3 hPa NNE 9.7 km/h 24.1 km/h 63 % 0.0 mm
16:12 23.3 °C 15.9 °C 1024.3 hPa NE 8.0 km/h 22.5 km/h 63 % 0.0 mm
16:17 23.3 °C 15.9 °C 1024.3 hPa West 9.7 km/h 20.9 km/h 63 % 0.0 mm
16:22 23.4 °C 16.0 °C 1024.3 hPa NNW 8.0 km/h 20.9 km/h 63 % 0.0 mm
16:32 23.3 °C 15.6 °C 1024.3 hPa ENE 9.7 km/h 16.1 km/h 62 % 0.0 mm
16:37 23.3 °C 16.1 °C 1024.3 hPa NNW 8.0 km/h 16.1 km/h 64 % 0.0 mm
16:42 23.4 °C 16.7 °C 1024.3 hPa NNE 6.4 km/h 16.1 km/h 66 % 0.0 mm
16:47 23.4 °C 16.0 °C 1024.3 hPa NNE 11.3 km/h 19.3 km/h 63 % 0.0 mm
16:52 23.1 °C 15.7 °C 1024.3 hPa NE 19.3 km/h 19.3 km/h 63 % 0.0 mm
16:57 22.9 °C 16.4 °C 1024.3 hPa NNW 8.0 km/h 24.1 km/h 67 % 0.0 mm
17:02 23.1 °C 16.9 °C 1024.3 hPa NE 11.3 km/h 24.1 km/h 68 % 0.0 mm
17:07 23.3 °C 15.9 °C 1023.9 hPa NNE 9.7 km/h 22.5 km/h 63 % 0.0 mm
17:12 23.2 °C 16.3 °C 1023.9 hPa NNE 14.5 km/h 22.5 km/h 65 % 0.0 mm
17:17 23.2 °C 16.7 °C 1023.9 hPa NNW 9.7 km/h 20.9 km/h 67 % 0.0 mm
17:22 23.2 °C 16.7 °C 1023.9 hPa NNE 8.0 km/h 20.9 km/h 67 % 0.0 mm
17:27 23.3 °C 16.6 °C 1023.9 hPa NNE 17.7 km/h 19.3 km/h 66 % 0.0 mm
17:32 23.2 °C 16.5 °C 1023.9 hPa NE 9.7 km/h 19.3 km/h 66 % 0.0 mm
17:37 23.3 °C 16.8 °C 1023.6 hPa NE 6.4 km/h 22.5 km/h 67 % 0.0 mm
17:42 23.3 °C 16.3 °C 1023.6 hPa NNE 3.2 km/h 22.5 km/h 65 % 0.0 mm
17:47 23.2 °C 16.5 °C 1023.6 hPa ENE 9.7 km/h 16.1 km/h 66 % 0.0 mm
17:52 23.2 °C 16.3 °C 1023.6 hPa NW 6.4 km/h 16.1 km/h 65 % 0.0 mm
17:57 23.2 °C 16.7 °C 1023.6 hPa NNE 17.7 km/h 20.9 km/h 67 % 0.0 mm
18:02 23.1 °C 16.6 °C 1023.6 hPa ENE 8.0 km/h 20.9 km/h 67 % 0.0 mm
18:07 23.1 °C 16.6 °C 1023.6 hPa NNE 17.7 km/h 20.9 km/h 67 % 0.0 mm
18:12 23.0 °C 16.3 °C 1023.6 hPa SSE 3.2 km/h 20.9 km/h 66 % 0.0 mm
18:17 23.1 °C 16.6 °C 1023.6 hPa ENE 3.2 km/h 22.5 km/h 67 % 0.0 mm
18:22 23.1 °C 16.6 °C 1023.6 hPa North 6.4 km/h 22.5 km/h 67 % 0.0 mm
18:27 22.9 °C 16.4 °C 1023.6 hPa North 8.0 km/h 22.5 km/h 67 % 0.0 mm
18:32 22.9 °C 16.4 °C 1023.6 hPa NNE 6.4 km/h 20.9 km/h 67 % 0.0 mm
18:37 23.0 °C 17.0 °C 1023.6 hPa NE 6.4 km/h 20.9 km/h 69 % 0.0 mm
18:42 22.9 °C 16.7 °C 1023.6 hPa NNW 17.7 km/h 20.9 km/h 68 % 0.0 mm
18:47 22.7 °C 16.5 °C 1023.6 hPa NW 3.2 km/h 20.9 km/h 68 % 0.0 mm
18:52 22.7 °C 16.5 °C 1023.6 hPa North 9.7 km/h 24.1 km/h 68 % 0.0 mm
18:57 22.7 °C 16.7 °C 1023.6 hPa North 12.9 km/h 24.1 km/h 69 % 0.0 mm
19:02 22.6 °C 16.4 °C 1023.6 hPa North 6.4 km/h 24.1 km/h 68 % 0.0 mm
19:07 22.6 °C 16.4 °C 1023.6 hPa NNW 9.7 km/h 20.9 km/h 68 % 0.0 mm
19:12 22.6 °C 16.6 °C 1023.6 hPa NNE 12.9 km/h 20.9 km/h 69 % 0.0 mm
19:17 22.5 °C 16.5 °C 1023.2 hPa NNE 12.9 km/h 20.9 km/h 69 % 0.0 mm
19:22 22.4 °C 16.4 °C 1023.2 hPa NNW 8.0 km/h 20.9 km/h 69 % 0.0 mm
19:32 22.2 °C 16.2 °C 1023.6 hPa North 11.3 km/h 24.1 km/h 69 % 0.0 mm
19:37 22.2 °C 16.5 °C 1023.6 hPa NE 12.9 km/h 24.1 km/h 70 % 0.0 mm
19:42 22.1 °C 16.1 °C 1023.2 hPa NNW 19.3 km/h 24.1 km/h 69 % 0.0 mm
19:52 21.8 °C 16.1 °C 1023.2 hPa NNE 12.9 km/h 22.5 km/h 70 % 0.0 mm
20:02 21.7 °C 16.2 °C 1023.2 hPa NNW 9.7 km/h 22.5 km/h 71 % 0.0 mm
20:07 21.6 °C 15.9 °C 1023.2 hPa NNE 12.9 km/h 22.5 km/h 70 % 0.0 mm
20:12 21.5 °C 16.0 °C 1023.6 hPa NNE 8.0 km/h 22.5 km/h 71 % 0.0 mm
20:17 21.4 °C 16.1 °C 1023.2 hPa NNW 4.8 km/h 17.7 km/h 72 % 0.0 mm
20:22 21.3 °C 15.8 °C 1023.2 hPa NNE 3.2 km/h 17.7 km/h 71 % 0.0 mm
20:32 21.2 °C 15.9 °C 1023.2 hPa NNE 8.0 km/h 14.5 km/h 72 % 0.0 mm
20:37 21.1 °C 15.9 °C 1023.6 hPa NE 4.8 km/h 14.5 km/h 72 % 0.0 mm
20:42 21.0 °C 15.8 °C 1023.6 hPa North 4.8 km/h 14.5 km/h 72 % 0.0 mm
20:47 20.8 °C 15.6 °C 1023.6 hPa NNW 9.7 km/h 12.9 km/h 72 % 0.0 mm
20:52 20.7 °C 15.7 °C 1023.6 hPa NE 6.4 km/h 12.9 km/h 73 % 0.0 mm
21:02 20.4 °C 15.6 °C 1023.2 hPa NW 4.8 km/h 12.9 km/h 74 % 0.0 mm
21:12 20.1 °C 15.5 °C 1023.2 hPa NE 4.8 km/h 12.9 km/h 75 % 0.0 mm
21:17 19.9 °C 15.5 °C 1023.6 hPa NNE 3.2 km/h 14.5 km/h 76 % 0.0 mm
21:27 19.3 °C 15.2 °C 1023.6 hPa North 3.2 km/h 14.5 km/h 77 % 0.0 mm
21:32 19.2 °C 15.3 °C 1023.6 hPa NNE 3.2 km/h 14.5 km/h 78 % 0.0 mm
21:42 18.9 °C 15.2 °C 1023.6 hPa NNE 11.3 km/h 14.5 km/h 79 % 0.0 mm
21:47 18.8 °C 15.1 °C 1023.6 hPa NNW 4.8 km/h 12.9 km/h 79 % 0.0 mm
21:52 18.7 °C 15.0 °C 1023.6 hPa NNE 1.6 km/h 12.9 km/h 79 % 0.0 mm
22:02 18.3 °C 15.0 °C 1023.6 hPa NNE 1.6 km/h 12.9 km/h 81 % 0.0 mm
22:12 18.1 °C 14.8 °C 1023.6 hPa NNW 3.2 km/h 9.7 km/h 81 % 0.0 mm
22:17 18.0 °C 14.9 °C 1023.6 hPa NW 6.4 km/h 12.9 km/h 82 % 0.0 mm
22:22 17.9 °C 14.8 °C 1023.6 hPa North 3.2 km/h 12.9 km/h 82 % 0.0 mm
22:32 17.8 °C 14.7 °C 1023.9 hPa NNE 4.8 km/h 12.9 km/h 82 % 0.0 mm
22:37 17.8 °C 14.7 °C 1023.9 hPa NNE 4.8 km/h 11.3 km/h 82 % 0.0 mm
22:42 17.7 °C 14.6 °C 1023.9 hPa NNW 1.6 km/h 11.3 km/h 82 % 0.0 mm
22:47 17.7 °C 14.6 °C 1023.9 hPa NNE 3.2 km/h 11.3 km/h 82 % 0.0 mm
22:52 17.6 °C 14.7 °C 1023.9 hPa NNW 3.2 km/h 11.3 km/h 83 % 0.0 mm
22:57 17.5 °C 14.6 °C 1023.9 hPa SE 3.2 km/h 11.3 km/h 83 % 0.0 mm
23:02 17.4 °C 14.5 °C 1023.9 hPa NE 8.0 km/h 11.3 km/h 83 % 0.0 mm
23:12 17.3 °C 14.6 °C 1023.9 hPa NE 9.7 km/h 11.3 km/h 84 % 0.0 mm
23:17 17.3 °C 14.6 °C 1023.6 hPa NE 8.0 km/h 14.5 km/h 84 % 0.0 mm
23:22 17.2 °C 14.5 °C 1023.6 hPa NNW 4.8 km/h 14.5 km/h 84 % 0.0 mm
23:32 17.1 °C 14.4 °C 1023.6 hPa NNE 3.2 km/h 12.9 km/h 84 % 0.0 mm
23:37 16.9 °C 14.4 °C 1023.6 hPa NNE 9.7 km/h 11.3 km/h 85 % 0.0 mm
23:42 17.0 °C 14.5 °C 1023.6 hPa WNW 4.8 km/h 11.3 km/h 85 % 0.0 mm
23:47 17.0 °C 14.3 °C 1023.6 hPa NNE 6.4 km/h 12.9 km/h 84 % 0.0 mm
23:52 16.9 °C 14.4 °C 1023.6 hPa NE 3.2 km/h 12.9 km/h 85 % 0.0 mm
23:57 16.8 °C 14.3 °C 1023.6 hPa NE 1.6 km/h 12.9 km/h 85 % 0.0 mm
Meteo18
Compliments of Weather Underground - 4 mb

Script developed by  Jim McMurry - jmcmurry@mwt.net Adapted for the template by  Wim van der Kuil - Leuven-Template.eu

You find our weather info also at:

European Weather Network

Weather Underground

Equipment we use:

Weather-station
Davis Vue

Weather-program
Meteohub

Weather-server
Raspberry PI 2 B+

Provider
1 and 1

Davis Vue

Meteohub

Raspberry PI 2 B+

1 and 1